sensor_id;sensor_type;location;lat;lon;timestamp;temperature;humidity
35381;DHT22;21486;51.916;8.378;2023-05-23T00:02:15;14.70;99.90
35381;DHT22;21486;51.916;8.378;2023-05-23T00:04:40;14.60;99.90
35381;DHT22;21486;51.916;8.378;2023-05-23T00:07:07;14.60;99.90
35381;DHT22;21486;51.916;8.378;2023-05-23T00:09:33;14.60;99.90
35381;DHT22;21486;51.916;8.378;2023-05-23T00:11:59;14.60;99.90
35381;DHT22;21486;51.916;8.378;2023-05-23T00:14:24;14.50;99.90
35381;DHT22;21486;51.916;8.378;2023-05-23T00:16:50;14.50;99.90
35381;DHT22;21486;51.916;8.378;2023-05-23T00:19:16;14.50;99.90
35381;DHT22;21486;51.916;8.378;2023-05-23T00:21:42;14.50;99.90
35381;DHT22;21486;51.916;8.378;2023-05-23T00:24:08;14.60;99.90
35381;DHT22;21486;51.916;8.378;2023-05-23T00:26:35;14.70;99.90
35381;DHT22;21486;51.916;8.378;2023-05-23T00:29:01;14.70;99.90
35381;DHT22;21486;51.916;8.378;2023-05-23T00:33:02;14.70;99.90
35381;DHT22;21486;51.916;8.378;2023-05-23T00:35:27;14.70;99.90
35381;DHT22;21486;51.916;8.378;2023-05-23T00:37:53;14.70;99.90
35381;DHT22;21486;51.916;8.378;2023-05-23T00:40:20;14.70;99.90
35381;DHT22;21486;51.916;8.378;2023-05-23T00:42:46;14.60;99.90
35381;DHT22;21486;51.916;8.378;2023-05-23T00:45:12;14.70;99.90
35381;DHT22;21486;51.916;8.378;2023-05-23T00:47:41;14.70;99.90
35381;DHT22;21486;51.916;8.378;2023-05-23T00:50:10;14.70;99.90
35381;DHT22;21486;51.916;8.378;2023-05-23T00:52:37;14.80;99.90
35381;DHT22;21486;51.916;8.378;2023-05-23T00:55:04;14.80;99.90
35381;DHT22;21486;51.916;8.378;2023-05-23T00:57:30;14.90;99.90
35381;DHT22;21486;51.916;8.378;2023-05-23T00:59:59;15.00;99.90
35381;DHT22;21486;51.916;8.378;2023-05-23T01:02:25;14.90;99.90
35381;DHT22;21486;51.916;8.378;2023-05-23T01:04:52;15.00;99.90
35381;DHT22;21486;51.916;8.378;2023-05-23T01:07:19;14.90;99.90
35381;DHT22;21486;51.916;8.378;2023-05-23T01:09:45;15.00;99.90
35381;DHT22;21486;51.916;8.378;2023-05-23T01:13:21;14.90;99.90
35381;DHT22;21486;51.916;8.378;2023-05-23T01:15:17;15.00;99.90
35381;DHT22;21486;51.916;8.378;2023-05-23T01:18:01;15.00;99.90
35381;DHT22;21486;51.916;8.378;2023-05-23T01:20:33;15.00;99.90
35381;DHT22;21486;51.916;8.378;2023-05-23T01:28:51;14.90;99.90
35381;DHT22;21486;51.916;8.378;2023-05-23T01:31:19;14.90;99.90
35381;DHT22;21486;51.916;8.378;2023-05-23T01:33:48;14.90;99.90
35381;DHT22;21486;51.916;8.378;2023-05-23T01:36:15;14.90;99.90
35381;DHT22;21486;51.916;8.378;2023-05-23T01:38:40;14.90;99.90
35381;DHT22;21486;51.916;8.378;2023-05-23T01:41:06;14.90;99.90
35381;DHT22;21486;51.916;8.378;2023-05-23T01:43:31;14.90;99.90
35381;DHT22;21486;51.916;8.378;2023-05-23T01:45:58;14.90;99.90
35381;DHT22;21486;51.916;8.378;2023-05-23T01:48:25;14.80;99.90
35381;DHT22;21486;51.916;8.378;2023-05-23T01:50:52;14.80;99.90
35381;DHT22;21486;51.916;8.378;2023-05-23T01:53:20;14.80;99.90
35381;DHT22;21486;51.916;8.378;2023-05-23T01:55:46;14.70;99.90
35381;DHT22;21486;51.916;8.378;2023-05-23T01:58:12;14.60;99.90
35381;DHT22;21486;51.916;8.378;2023-05-23T02:00:38;14.60;99.90
35381;DHT22;21486;51.916;8.378;2023-05-23T02:03:04;14.60;99.90
35381;DHT22;21486;51.916;8.378;2023-05-23T02:05:30;14.60;99.90
35381;DHT22;21486;51.916;8.378;2023-05-23T02:07:55;14.60;99.90
35381;DHT22;21486;51.916;8.378;2023-05-23T02:10:21;14.60;99.90
35381;DHT22;21486;51.916;8.378;2023-05-23T02:12:47;14.50;99.90
35381;DHT22;21486;51.916;8.378;2023-05-23T02:15:12;14.60;99.90
35381;DHT22;21486;51.916;8.378;2023-05-23T02:17:38;14.70;99.90
35381;DHT22;21486;51.916;8.378;2023-05-23T02:20:04;14.70;99.90
35381;DHT22;21486;51.916;8.378;2023-05-23T02:22:30;14.60;99.90
35381;DHT22;21486;51.916;8.378;2023-05-23T02:24:56;14.70;99.90
35381;DHT22;21486;51.916;8.378;2023-05-23T02:27:21;14.60;99.90
35381;DHT22;21486;51.916;8.378;2023-05-23T02:29:47;14.50;99.90
35381;DHT22;21486;51.916;8.378;2023-05-23T02:32:12;14.40;99.90
35381;DHT22;21486;51.916;8.378;2023-05-23T02:34:38;14.30;99.90
35381;DHT22;21486;51.916;8.378;2023-05-23T02:37:04;14.30;99.90
35381;DHT22;21486;51.916;8.378;2023-05-23T02:39:30;14.40;99.90
35381;DHT22;21486;51.916;8.378;2023-05-23T02:41:55;14.40;99.90
35381;DHT22;21486;51.916;8.378;2023-05-23T02:44:21;14.60;99.90
35381;DHT22;21486;51.916;8.378;2023-05-23T02:46:46;14.60;99.90
35381;DHT22;21486;51.916;8.378;2023-05-23T02:49:12;14.60;99.90
35381;DHT22;21486;51.916;8.378;2023-05-23T02:51:37;14.60;99.90
35381;DHT22;21486;51.916;8.378;2023-05-23T02:54:03;14.50;99.90
35381;DHT22;21486;51.916;8.378;2023-05-23T02:56:29;14.50;99.90
35381;DHT22;21486;51.916;8.378;2023-05-23T02:58:55;14.50;99.90
35381;DHT22;21486;51.916;8.378;2023-05-23T03:01:20;14.40;99.90
35381;DHT22;21486;51.916;8.378;2023-05-23T03:03:46;14.40;99.90
35381;DHT22;21486;51.916;8.378;2023-05-23T03:06:11;14.50;99.90
35381;DHT22;21486;51.916;8.378;2023-05-23T03:08:39;14.50;99.90
35381;DHT22;21486;51.916;8.378;2023-05-23T03:11:05;14.50;99.90
35381;DHT22;21486;51.916;8.378;2023-05-23T03:13:31;14.40;99.90
35381;DHT22;21486;51.916;8.378;2023-05-23T03:15:57;14.30;99.90
35381;DHT22;21486;51.916;8.378;2023-05-23T03:18:22;14.40;99.90
35381;DHT22;21486;51.916;8.378;2023-05-23T03:20:48;14.40;99.90
35381;DHT22;21486;51.916;8.378;2023-05-23T03:23:13;14.30;99.90
35381;DHT22;21486;51.916;8.378;2023-05-23T03:25:39;14.30;99.90
35381;DHT22;21486;51.916;8.378;2023-05-23T03:28:04;14.30;99.90
35381;DHT22;21486;51.916;8.378;2023-05-23T03:30:30;14.30;99.90
35381;DHT22;21486;51.916;8.378;2023-05-23T03:32:55;14.30;99.90
35381;DHT22;21486;51.916;8.378;2023-05-23T03:35:21;14.40;99.90
35381;DHT22;21486;51.916;8.378;2023-05-23T03:37:46;14.40;99.90
35381;DHT22;21486;51.916;8.378;2023-05-23T03:40:12;14.30;99.90
35381;DHT22;21486;51.916;8.378;2023-05-23T03:42:38;14.30;99.90
35381;DHT22;21486;51.916;8.378;2023-05-23T03:45:04;14.40;99.90
35381;DHT22;21486;51.916;8.378;2023-05-23T03:47:30;14.40;99.90
35381;DHT22;21486;51.916;8.378;2023-05-23T03:49:56;14.40;99.90
35381;DHT22;21486;51.916;8.378;2023-05-23T03:52:22;14.30;99.90
35381;DHT22;21486;51.916;8.378;2023-05-23T03:54:47;14.30;99.90
35381;DHT22;21486;51.916;8.378;2023-05-23T03:57:13;14.40;99.90
35381;DHT22;21486;51.916;8.378;2023-05-23T03:59:38;14.30;99.90
35381;DHT22;21486;51.916;8.378;2023-05-23T04:02:04;14.40;99.90
35381;DHT22;21486;51.916;8.378;2023-05-23T04:04:30;14.20;99.90
35381;DHT22;21486;51.916;8.378;2023-05-23T04:06:56;14.20;99.90
35381;DHT22;21486;51.916;8.378;2023-05-23T04:09:22;14.20;99.90
35381;DHT22;21486;51.916;8.378;2023-05-23T04:11:48;14.20;99.90
35381;DHT22;21486;51.916;8.378;2023-05-23T04:14:14;14.20;99.90
35381;DHT22;21486;51.916;8.378;2023-05-23T04:16:39;14.20;99.90
35381;DHT22;21486;51.916;8.378;2023-05-23T04:19:09;14.20;99.90
35381;DHT22;21486;51.916;8.378;2023-05-23T04:21:34;14.30;99.90
35381;DHT22;21486;51.916;8.378;2023-05-23T04:24:00;14.40;99.90
35381;DHT22;21486;51.916;8.378;2023-05-23T04:26:26;14.30;99.90
35381;DHT22;21486;51.916;8.378;2023-05-23T04:28:53;14.30;99.90
35381;DHT22;21486;51.916;8.378;2023-05-23T04:31:21;14.30;99.90
35381;DHT22;21486;51.916;8.378;2023-05-23T04:33:47;14.40;99.90
35381;DHT22;21486;51.916;8.378;2023-05-23T04:36:13;14.50;99.90
35381;DHT22;21486;51.916;8.378;2023-05-23T04:38:38;14.50;99.90
35381;DHT22;21486;51.916;8.378;2023-05-23T04:41:05;14.50;99.90
35381;DHT22;21486;51.916;8.378;2023-05-23T04:43:31;14.50;99.90
35381;DHT22;21486;51.916;8.378;2023-05-23T04:45:58;14.50;99.90
35381;DHT22;21486;51.916;8.378;2023-05-23T04:48:24;14.50;99.90
35381;DHT22;21486;51.916;8.378;2023-05-23T04:50:51;14.50;99.90
35381;DHT22;21486;51.916;8.378;2023-05-23T04:53:17;14.60;99.90
35381;DHT22;21486;51.916;8.378;2023-05-23T04:55:42;14.60;99.90
35381;DHT22;21486;51.916;8.378;2023-05-23T04:58:08;14.60;99.90
35381;DHT22;21486;51.916;8.378;2023-05-23T05:00:34;14.60;99.90
35381;DHT22;21486;51.916;8.378;2023-05-23T05:03:00;14.60;99.90
35381;DHT22;21486;51.916;8.378;2023-05-23T05:05:26;14.60;99.90
35381;DHT22;21486;51.916;8.378;2023-05-23T05:07:51;14.60;99.90
35381;DHT22;21486;51.916;8.378;2023-05-23T05:10:17;14.50;99.90
35381;DHT22;21486;51.916;8.378;2023-05-23T05:12:47;14.50;99.90
35381;DHT22;21486;51.916;8.378;2023-05-23T05:15:16;14.60;99.90
35381;DHT22;21486;51.916;8.378;2023-05-23T05:17:42;14.60;99.90
35381;DHT22;21486;51.916;8.378;2023-05-23T05:20:08;14.70;99.90
35381;DHT22;21486;51.916;8.378;2023-05-23T05:22:35;14.70;99.90
35381;DHT22;21486;51.916;8.378;2023-05-23T05:25:08;14.60;99.90
35381;DHT22;21486;51.916;8.378;2023-05-23T05:27:33;14.60;99.90
35381;DHT22;21486;51.916;8.378;2023-05-23T05:29:59;14.70;99.90
35381;DHT22;21486;51.916;8.378;2023-05-23T05:32:29;14.70;99.90
35381;DHT22;21486;51.916;8.378;2023-05-23T05:35:01;14.60;99.90
35381;DHT22;21486;51.916;8.378;2023-05-23T05:37:27;14.60;99.90
35381;DHT22;21486;51.916;8.378;2023-05-23T05:39:53;14.60;99.90
35381;DHT22;21486;51.916;8.378;2023-05-23T05:42:20;14.70;99.90
35381;DHT22;21486;51.916;8.378;2023-05-23T05:44:46;14.60;99.90
35381;DHT22;21486;51.916;8.378;2023-05-23T05:47:12;14.70;99.90
35381;DHT22;21486;51.916;8.378;2023-05-23T05:49:38;14.60;99.90
35381;DHT22;21486;51.916;8.378;2023-05-23T05:52:05;14.60;99.90
35381;DHT22;21486;51.916;8.378;2023-05-23T05:54:31;14.60;99.90
35381;DHT22;21486;51.916;8.378;2023-05-23T05:56:56;14.50;99.90
35381;DHT22;21486;51.916;8.378;2023-05-23T05:59:22;14.40;99.90
35381;DHT22;21486;51.916;8.378;2023-05-23T06:01:48;14.60;99.90
35381;DHT22;21486;51.916;8.378;2023-05-23T06:04:15;14.70;99.90
35381;DHT22;21486;51.916;8.378;2023-05-23T06:06:41;14.60;99.90
35381;DHT22;21486;51.916;8.378;2023-05-23T06:09:07;14.60;99.90
35381;DHT22;21486;51.916;8.378;2023-05-23T06:11:32;14.50;99.90
35381;DHT22;21486;51.916;8.378;2023-05-23T06:13:58;14.50;99.90
35381;DHT22;21486;51.916;8.378;2023-05-23T06:16:23;14.50;99.90
35381;DHT22;21486;51.916;8.378;2023-05-23T06:18:49;14.50;99.90
35381;DHT22;21486;51.916;8.378;2023-05-23T06:21:14;14.50;99.90
35381;DHT22;21486;51.916;8.378;2023-05-23T06:23:40;14.50;99.90
35381;DHT22;21486;51.916;8.378;2023-05-23T06:26:05;14.50;99.90
35381;DHT22;21486;51.916;8.378;2023-05-23T06:28:37;14.50;99.90
35381;DHT22;21486;51.916;8.378;2023-05-23T06:31:04;14.50;99.90
35381;DHT22;21486;51.916;8.378;2023-05-23T06:33:30;14.50;99.90
35381;DHT22;21486;51.916;8.378;2023-05-23T06:35:56;14.60;99.90
35381;DHT22;21486;51.916;8.378;2023-05-23T06:38:21;14.60;99.90
35381;DHT22;21486;51.916;8.378;2023-05-23T06:40:47;14.50;99.90
35381;DHT22;21486;51.916;8.378;2023-05-23T06:43:13;14.40;99.90
35381;DHT22;21486;51.916;8.378;2023-05-23T06:45:38;14.50;99.90
35381;DHT22;21486;51.916;8.378;2023-05-23T06:48:04;14.40;99.90
35381;DHT22;21486;51.916;8.378;2023-05-23T06:50:29;14.40;99.90
35381;DHT22;21486;51.916;8.378;2023-05-23T06:52:55;14.40;99.90
35381;DHT22;21486;51.916;8.378;2023-05-23T06:55:22;14.30;99.90
35381;DHT22;21486;51.916;8.378;2023-05-23T06:57:47;14.30;99.90
35381;DHT22;21486;51.916;8.378;2023-05-23T07:00:16;14.30;99.90
35381;DHT22;21486;51.916;8.378;2023-05-23T07:02:42;14.20;99.90
35381;DHT22;21486;51.916;8.378;2023-05-23T07:05:09;14.10;99.90
35381;DHT22;21486;51.916;8.378;2023-05-23T07:07:35;14.10;99.90
35381;DHT22;21486;51.916;8.378;2023-05-23T07:10:01;14.00;99.90
35381;DHT22;21486;51.916;8.378;2023-05-23T07:12:26;14.10;99.90
35381;DHT22;21486;51.916;8.378;2023-05-23T07:14:52;14.00;99.90
35381;DHT22;21486;51.916;8.378;2023-05-23T07:17:17;14.10;99.90
35381;DHT22;21486;51.916;8.378;2023-05-23T07:19:44;14.00;99.90
35381;DHT22;21486;51.916;8.378;2023-05-23T07:22:10;13.90;99.90
35381;DHT22;21486;51.916;8.378;2023-05-23T07:24:36;13.90;99.90
35381;DHT22;21486;51.916;8.378;2023-05-23T07:27:02;13.80;99.90
35381;DHT22;21486;51.916;8.378;2023-05-23T07:29:28;13.90;99.90
35381;DHT22;21486;51.916;8.378;2023-05-23T07:31:53;13.90;99.90
35381;DHT22;21486;51.916;8.378;2023-05-23T07:34:19;13.90;99.90
35381;DHT22;21486;51.916;8.378;2023-05-23T07:36:44;13.80;99.90
35381;DHT22;21486;51.916;8.378;2023-05-23T07:39:10;13.70;99.90
35381;DHT22;21486;51.916;8.378;2023-05-23T07:41:36;13.70;99.90
35381;DHT22;21486;51.916;8.378;2023-05-23T07:44:01;13.70;99.90
35381;DHT22;21486;51.916;8.378;2023-05-23T07:46:27;13.80;99.90
35381;DHT22;21486;51.916;8.378;2023-05-23T07:48:52;13.80;99.90
35381;DHT22;21486;51.916;8.378;2023-05-23T07:51:18;13.90;99.90
35381;DHT22;21486;51.916;8.378;2023-05-23T07:53:46;13.90;99.90
35381;DHT22;21486;51.916;8.378;2023-05-23T07:56:11;13.90;99.90
35381;DHT22;21486;51.916;8.378;2023-05-23T07:58:37;13.90;99.90
35381;DHT22;21486;51.916;8.378;2023-05-23T08:01:02;13.90;99.90
35381;DHT22;21486;51.916;8.378;2023-05-23T08:03:28;14.10;99.90
35381;DHT22;21486;51.916;8.378;2023-05-23T08:05:53;14.30;99.90
35381;DHT22;21486;51.916;8.378;2023-05-23T08:08:19;14.20;99.90
35381;DHT22;21486;51.916;8.378;2023-05-23T08:10:45;14.20;99.90
35381;DHT22;21486;51.916;8.378;2023-05-23T08:13:11;14.20;99.90
35381;DHT22;21486;51.916;8.378;2023-05-23T08:15:37;14.20;99.90
35381;DHT22;21486;51.916;8.378;2023-05-23T08:18:03;14.10;99.90
35381;DHT22;21486;51.916;8.378;2023-05-23T08:20:29;14.00;99.90
35381;DHT22;21486;51.916;8.378;2023-05-23T08:23:00;13.90;99.90
35381;DHT22;21486;51.916;8.378;2023-05-23T08:25:27;13.80;99.90
35381;DHT22;21486;51.916;8.378;2023-05-23T08:27:57;13.80;99.90
35381;DHT22;21486;51.916;8.378;2023-05-23T08:30:24;13.90;99.90
35381;DHT22;21486;51.916;8.378;2023-05-23T08:32:53;13.90;99.90
35381;DHT22;21486;51.916;8.378;2023-05-23T08:35:20;14.00;99.90
35381;DHT22;21486;51.916;8.378;2023-05-23T08:37:46;14.00;99.90
35381;DHT22;21486;51.916;8.378;2023-05-23T08:40:19;14.10;99.90
35381;DHT22;21486;51.916;8.378;2023-05-23T08:42:46;14.10;99.90
35381;DHT22;21486;51.916;8.378;2023-05-23T08:45:13;14.00;99.90
35381;DHT22;21486;51.916;8.378;2023-05-23T08:47:41;14.10;99.90
35381;DHT22;21486;51.916;8.378;2023-05-23T08:50:07;14.00;99.90
35381;DHT22;21486;51.916;8.378;2023-05-23T08:52:37;14.10;99.90
35381;DHT22;21486;51.916;8.378;2023-05-23T08:55:10;14.00;99.90
35381;DHT22;21486;51.916;8.378;2023-05-23T08:57:37;14.00;99.90
35381;DHT22;21486;51.916;8.378;2023-05-23T09:00:04;14.00;99.90
35381;DHT22;21486;51.916;8.378;2023-05-23T09:02:39;13.90;99.90
35381;DHT22;21486;51.916;8.378;2023-05-23T09:05:06;14.00;99.90
35381;DHT22;21486;51.916;8.378;2023-05-23T09:07:31;14.00;99.90
35381;DHT22;21486;51.916;8.378;2023-05-23T09:09:57;14.00;99.90
35381;DHT22;21486;51.916;8.378;2023-05-23T09:12:22;14.10;99.90
35381;DHT22;21486;51.916;8.378;2023-05-23T09:14:49;14.10;99.90
35381;DHT22;21486;51.916;8.378;2023-05-23T09:17:17;14.20;99.90
35381;DHT22;21486;51.916;8.378;2023-05-23T09:19:43;14.20;99.90
35381;DHT22;21486;51.916;8.378;2023-05-23T09:22:11;14.20;99.90
35381;DHT22;21486;51.916;8.378;2023-05-23T09:24:38;14.20;99.90
35381;DHT22;21486;51.916;8.378;2023-05-23T09:27:06;14.20;99.90
35381;DHT22;21486;51.916;8.378;2023-05-23T09:29:36;14.10;99.90
35381;DHT22;21486;51.916;8.378;2023-05-23T09:32:14;14.00;99.90
35381;DHT22;21486;51.916;8.378;2023-05-23T09:34:58;13.90;99.90
35381;DHT22;21486;51.916;8.378;2023-05-23T09:37:36;14.00;99.90
35381;DHT22;21486;51.916;8.378;2023-05-23T09:40:08;14.10;99.90
35381;DHT22;21486;51.916;8.378;2023-05-23T09:42:35;14.10;99.90
35381;DHT22;21486;51.916;8.378;2023-05-23T09:45:01;14.10;99.90
35381;DHT22;21486;51.916;8.378;2023-05-23T09:47:27;14.10;99.90
35381;DHT22;21486;51.916;8.378;2023-05-23T09:49:53;14.00;99.90
35381;DHT22;21486;51.916;8.378;2023-05-23T09:52:18;13.70;99.90
35381;DHT22;21486;51.916;8.378;2023-05-23T09:54:47;13.60;99.90
35381;DHT22;21486;51.916;8.378;2023-05-23T09:57:14;13.50;99.90
35381;DHT22;21486;51.916;8.378;2023-05-23T09:59:47;13.40;99.90
35381;DHT22;21486;51.916;8.378;2023-05-23T10:02:16;13.20;99.90
35381;DHT22;21486;51.916;8.378;2023-05-23T10:04:42;13.20;99.90
35381;DHT22;21486;51.916;8.378;2023-05-23T10:07:18;13.40;99.90
35381;DHT22;21486;51.916;8.378;2023-05-23T10:09:47;13.50;99.90
35381;DHT22;21486;51.916;8.378;2023-05-23T10:15:03;13.50;99.90
35381;DHT22;21486;51.916;8.378;2023-05-23T10:20:24;13.70;99.90
35381;DHT22;21486;51.916;8.378;2023-05-23T10:22:53;13.50;99.90
35381;DHT22;21486;51.916;8.378;2023-05-23T10:25:19;13.50;99.90
35381;DHT22;21486;51.916;8.378;2023-05-23T10:27:46;13.50;99.90
35381;DHT22;21486;51.916;8.378;2023-05-23T10:30:13;13.60;99.90
35381;DHT22;21486;51.916;8.378;2023-05-23T10:32:39;13.40;99.90
35381;DHT22;21486;51.916;8.378;2023-05-23T10:38:03;13.30;99.90
35381;DHT22;21486;51.916;8.378;2023-05-23T10:40:57;13.30;99.90
35381;DHT22;21486;51.916;8.378;2023-05-23T10:43:35;13.40;99.90
35381;DHT22;21486;51.916;8.378;2023-05-23T10:46:06;13.50;99.90
35381;DHT22;21486;51.916;8.378;2023-05-23T10:48:34;13.60;99.90
35381;DHT22;21486;51.916;8.378;2023-05-23T10:51:04;14.10;99.90
35381;DHT22;21486;51.916;8.378;2023-05-23T10:53:31;14.40;99.90
35381;DHT22;21486;51.916;8.378;2023-05-23T10:55:56;14.60;99.40
35381;DHT22;21486;51.916;8.378;2023-05-23T10:58:22;14.80;97.90
35381;DHT22;21486;51.916;8.378;2023-05-23T11:03:17;14.80;98.20
35381;DHT22;21486;51.916;8.378;2023-05-23T11:05:52;14.90;99.20
35381;DHT22;21486;51.916;8.378;2023-05-23T11:08:19;15.00;99.00
35381;DHT22;21486;51.916;8.378;2023-05-23T11:11:03;15.10;97.50
35381;DHT22;21486;51.916;8.378;2023-05-23T11:13:57;15.20;96.70
35381;DHT22;21486;51.916;8.378;2023-05-23T11:16:27;15.40;96.00
35381;DHT22;21486;51.916;8.378;2023-05-23T11:21:48;15.60;95.20
35381;DHT22;21486;51.916;8.378;2023-05-23T11:24:14;16.00;94.10
35381;DHT22;21486;51.916;8.378;2023-05-23T11:26:39;16.40;94.20
35381;DHT22;21486;51.916;8.378;2023-05-23T11:29:15;16.80;91.30
35381;DHT22;21486;51.916;8.378;2023-05-23T11:31:41;16.80;88.90
35381;DHT22;21486;51.916;8.378;2023-05-23T11:34:06;16.50;88.90
35381;DHT22;21486;51.916;8.378;2023-05-23T11:36:32;15.80;91.00
35381;DHT22;21486;51.916;8.378;2023-05-23T11:39:01;15.80;89.00
35381;DHT22;21486;51.916;8.378;2023-05-23T11:41:28;15.80;91.10
35381;DHT22;21486;51.916;8.378;2023-05-23T11:43:54;16.00;90.40
35381;DHT22;21486;51.916;8.378;2023-05-23T11:46:20;16.20;88.10
35381;DHT22;21486;51.916;8.378;2023-05-23T11:48:47;16.30;89.20
35381;DHT22;21486;51.916;8.378;2023-05-23T11:51:14;16.10;90.00
35381;DHT22;21486;51.916;8.378;2023-05-23T11:53:40;16.00;88.00
35381;DHT22;21486;51.916;8.378;2023-05-23T11:56:06;15.70;88.00
35381;DHT22;21486;51.916;8.378;2023-05-23T11:58:36;15.50;89.60
35381;DHT22;21486;51.916;8.378;2023-05-23T12:01:03;15.20;90.50
35381;DHT22;21486;51.916;8.378;2023-05-23T12:03:29;15.10;90.40
35381;DHT22;21486;51.916;8.378;2023-05-23T12:05:56;15.10;90.40
35381;DHT22;21486;51.916;8.378;2023-05-23T12:08:21;14.90;91.10
35381;DHT22;21486;51.916;8.378;2023-05-23T12:10:49;15.10;91.10
35381;DHT22;21486;51.916;8.378;2023-05-23T12:13:15;15.10;90.40
35381;DHT22;21486;51.916;8.378;2023-05-23T12:15:41;15.40;90.30
35381;DHT22;21486;51.916;8.378;2023-05-23T12:18:06;15.90;89.50
35381;DHT22;21486;51.916;8.378;2023-05-23T12:20:32;16.10;87.40
35381;DHT22;21486;51.916;8.378;2023-05-23T12:23:03;16.50;82.40
35381;DHT22;21486;51.916;8.378;2023-05-23T12:25:28;16.60;84.80
35381;DHT22;21486;51.916;8.378;2023-05-23T12:27:55;17.00;80.40
35381;DHT22;21486;51.916;8.378;2023-05-23T12:30:21;16.70;82.30
35381;DHT22;21486;51.916;8.378;2023-05-23T12:32:46;16.60;82.10
35381;DHT22;21486;51.916;8.378;2023-05-23T12:35:15;16.60;84.10
35381;DHT22;21486;51.916;8.378;2023-05-23T12:37:42;16.40;83.50
35381;DHT22;21486;51.916;8.378;2023-05-23T12:40:13;16.50;84.10
35381;DHT22;21486;51.916;8.378;2023-05-23T12:42:54;16.70;83.10
35381;DHT22;21486;51.916;8.378;2023-05-23T12:45:31;16.50;80.80
35381;DHT22;21486;51.916;8.378;2023-05-23T12:47:57;16.40;80.10
35381;DHT22;21486;51.916;8.378;2023-05-23T12:50:23;16.60;79.10
35381;DHT22;21486;51.916;8.378;2023-05-23T12:52:48;16.80;81.20
35381;DHT22;21486;51.916;8.378;2023-05-23T12:55:14;17.10;75.30
35381;DHT22;21486;51.916;8.378;2023-05-23T12:57:39;17.40;75.10
35381;DHT22;21486;51.916;8.378;2023-05-23T13:00:05;17.40;74.30
35381;DHT22;21486;51.916;8.378;2023-05-23T13:02:32;17.10;76.90
35381;DHT22;21486;51.916;8.378;2023-05-23T13:04:58;17.30;76.40
35381;DHT22;21486;51.916;8.378;2023-05-23T13:07:23;17.00;75.90
35381;DHT22;21486;51.916;8.378;2023-05-23T13:09:49;16.70;74.40
35381;DHT22;21486;51.916;8.378;2023-05-23T13:12:14;16.40;74.50
35381;DHT22;21486;51.916;8.378;2023-05-23T13:14:40;16.50;76.30
35381;DHT22;21486;51.916;8.378;2023-05-23T13:17:06;16.60;77.70
35381;DHT22;21486;51.916;8.378;2023-05-23T13:19:32;16.60;77.60
35381;DHT22;21486;51.916;8.378;2023-05-23T13:21:58;16.70;76.20
35381;DHT22;21486;51.916;8.378;2023-05-23T13:24:25;16.60;77.10
35381;DHT22;21486;51.916;8.378;2023-05-23T13:26:51;16.70;76.60
35381;DHT22;21486;51.916;8.378;2023-05-23T13:29:16;16.90;76.50
35381;DHT22;21486;51.916;8.378;2023-05-23T13:31:42;16.80;77.20
35381;DHT22;21486;51.916;8.378;2023-05-23T13:34:07;16.70;72.60
35381;DHT22;21486;51.916;8.378;2023-05-23T13:36:33;16.90;73.50
35381;DHT22;21486;51.916;8.378;2023-05-23T13:39:00;17.20;69.90
35381;DHT22;21486;51.916;8.378;2023-05-23T13:41:26;17.20;71.60
35381;DHT22;21486;51.916;8.378;2023-05-23T13:43:51;17.20;70.30
35381;DHT22;21486;51.916;8.378;2023-05-23T13:46:17;17.00;67.00
35381;DHT22;21486;51.916;8.378;2023-05-23T13:48:43;17.00;67.60
35381;DHT22;21486;51.916;8.378;2023-05-23T13:51:08;17.10;69.20
35381;DHT22;21486;51.916;8.378;2023-05-23T13:53:34;17.20;69.10
35381;DHT22;21486;51.916;8.378;2023-05-23T13:56:00;17.10;70.20
35381;DHT22;21486;51.916;8.378;2023-05-23T13:58:26;17.20;69.40
35381;DHT22;21486;51.916;8.378;2023-05-23T14:00:51;17.70;69.80
35381;DHT22;21486;51.916;8.378;2023-05-23T14:03:17;17.80;67.60
35381;DHT22;21486;51.916;8.378;2023-05-23T14:05:43;17.60;69.00
35381;DHT22;21486;51.916;8.378;2023-05-23T14:08:09;17.70;67.90
35381;DHT22;21486;51.916;8.378;2023-05-23T14:10:37;17.90;68.10
35381;DHT22;21486;51.916;8.378;2023-05-23T14:13:03;17.80;67.80
35381;DHT22;21486;51.916;8.378;2023-05-23T14:15:28;17.80;65.60
35381;DHT22;21486;51.916;8.378;2023-05-23T14:17:54;17.30;69.10
35381;DHT22;21486;51.916;8.378;2023-05-23T14:20:21;17.20;67.70
35381;DHT22;21486;51.916;8.378;2023-05-23T14:22:47;16.90;69.90
35381;DHT22;21486;51.916;8.378;2023-05-23T14:25:14;17.00;67.80
35381;DHT22;21486;51.916;8.378;2023-05-23T14:27:39;17.20;65.40
35381;DHT22;21486;51.916;8.378;2023-05-23T14:30:05;17.40;64.50
35381;DHT22;21486;51.916;8.378;2023-05-23T14:32:31;17.20;63.50
35381;DHT22;21486;51.916;8.378;2023-05-23T14:35:06;16.90;65.80
35381;DHT22;21486;51.916;8.378;2023-05-23T14:37:32;16.80;66.30
35381;DHT22;21486;51.916;8.378;2023-05-23T14:39:58;17.00;66.70
35381;DHT22;21486;51.916;8.378;2023-05-23T14:42:23;17.00;66.20
35381;DHT22;21486;51.916;8.378;2023-05-23T14:44:49;17.40;67.00
35381;DHT22;21486;51.916;8.378;2023-05-23T14:47:14;17.60;66.60
35381;DHT22;21486;51.916;8.378;2023-05-23T14:49:40;17.50;66.40
35381;DHT22;21486;51.916;8.378;2023-05-23T14:52:05;17.20;64.60
35381;DHT22;21486;51.916;8.378;2023-05-23T14:54:31;17.10;66.00
35381;DHT22;21486;51.916;8.378;2023-05-23T14:56:57;17.10;66.70
35381;DHT22;21486;51.916;8.378;2023-05-23T14:59:22;17.10;65.70
35381;DHT22;21486;51.916;8.378;2023-05-23T15:01:48;17.10;66.70
35381;DHT22;21486;51.916;8.378;2023-05-23T15:04:14;17.00;65.00
35381;DHT22;21486;51.916;8.378;2023-05-23T15:06:40;16.90;65.90
35381;DHT22;21486;51.916;8.378;2023-05-23T15:09:06;16.90;65.20
35381;DHT22;21486;51.916;8.378;2023-05-23T15:11:33;16.80;65.30
35381;DHT22;21486;51.916;8.378;2023-05-23T15:14:02;16.60;68.60
35381;DHT22;21486;51.916;8.378;2023-05-23T15:16:28;16.50;67.60
35381;DHT22;21486;51.916;8.378;2023-05-23T15:18:57;16.40;67.60
35381;DHT22;21486;51.916;8.378;2023-05-23T15:21:24;16.30;68.00
35381;DHT22;21486;51.916;8.378;2023-05-23T15:23:49;16.00;67.60
35381;DHT22;21486;51.916;8.378;2023-05-23T15:26:15;16.10;68.10
35381;DHT22;21486;51.916;8.378;2023-05-23T15:28:41;15.90;66.10
35381;DHT22;21486;51.916;8.378;2023-05-23T15:31:06;15.90;66.20
35381;DHT22;21486;51.916;8.378;2023-05-23T15:33:32;16.00;68.50
35381;DHT22;21486;51.916;8.378;2023-05-23T15:35:57;16.10;67.10
35381;DHT22;21486;51.916;8.378;2023-05-23T15:38:23;16.40;66.40
35381;DHT22;21486;51.916;8.378;2023-05-23T15:40:49;16.50;65.80
35381;DHT22;21486;51.916;8.378;2023-05-23T15:43:19;16.70;66.30
35381;DHT22;21486;51.916;8.378;2023-05-23T15:45:45;17.00;64.40
35381;DHT22;21486;51.916;8.378;2023-05-23T15:48:10;16.70;63.50
35381;DHT22;21486;51.916;8.378;2023-05-23T15:50:36;16.60;65.70